ADDS TAF Data INFO
IDs: Format: Raw Decoded Include METARs

Data at: 0033 UTC 23 Jun 2018

KLRU 230015Z AUTO 24017G21KT 10SM CLR 39/M10 A2987 RMK AO2 T03861097

KLRU 222327Z 2300/2324 26014G24KT P6SM SKC
  FM230300 27007KT P6SM SKC
  FM232100 25014G23KT P6SM SKC